Terminal Aerodrome Forecast
Issued by NWS

Home | Current Version | Previous Version | Text Only | Print | Product List | Glossary Off
Versions: 1 2 3 4 5 6 7 8 9 10 11 12 13 14 15 16 17 18 19 20 21 22 23 24 25 26 27 28 29 30 31 32 33 34 35 36 37 38 39 40 41 42

515
FTUS43 KLOT 120856 AAA
TAFGYY
TAF AMD
KGYY 120856Z 1209/1306 31018G27KT P6SM SCT035 BKN045
      TEMPO 1209/1212 -SHSN BKN035
     FM121300 31015G25KT P6SM SCT035 SCT250
     FM130000 29012KT P6SM BKN100=

USA.gov is the U.S. government's official web portal to all federal, state and local government web resources and services.